sensor_id;sensor_type;location;lat;lon;timestamp;P1;durP1;ratioP1;P2;durP2;ratioP2
35306;SDS011;21420;52.196;21.416;2022-07-23T00:02:17;29.98;;;23.22;;
35306;SDS011;21420;52.196;21.416;2022-07-23T00:04:43;35.65;;;23.00;;
35306;SDS011;21420;52.196;21.416;2022-07-23T00:07:09;29.63;;;22.40;;
35306;SDS011;21420;52.196;21.416;2022-07-23T00:09:36;29.98;;;21.73;;
35306;SDS011;21420;52.196;21.416;2022-07-23T00:12:02;28.05;;;21.65;;
35306;SDS011;21420;52.196;21.416;2022-07-23T00:14:30;24.15;;;20.77;;
35306;SDS011;21420;52.196;21.416;2022-07-23T00:16:56;23.57;;;20.05;;
35306;SDS011;21420;52.196;21.416;2022-07-23T00:19:22;24.95;;;20.08;;
35306;SDS011;21420;52.196;21.416;2022-07-23T00:21:49;23.70;;;20.02;;
35306;SDS011;21420;52.196;21.416;2022-07-23T00:24:15;26.45;;;19.65;;
35306;SDS011;21420;52.196;21.416;2022-07-23T00:26:41;25.95;;;20.65;;
35306;SDS011;21420;52.196;21.416;2022-07-23T00:29:07;26.02;;;20.25;;
35306;SDS011;21420;52.196;21.416;2022-07-23T00:31:33;24.10;;;19.17;;
35306;SDS011;21420;52.196;21.416;2022-07-23T00:33:59;25.95;;;19.90;;
35306;SDS011;21420;52.196;21.416;2022-07-23T00:36:27;22.75;;;19.75;;
35306;SDS011;21420;52.196;21.416;2022-07-23T00:38:53;22.85;;;19.77;;
35306;SDS011;21420;52.196;21.416;2022-07-23T00:41:20;22.65;;;19.62;;
35306;SDS011;21420;52.196;21.416;2022-07-23T00:43:46;20.72;;;18.52;;
35306;SDS011;21420;52.196;21.416;2022-07-23T00:46:12;19.92;;;16.95;;
35306;SDS011;21420;52.196;21.416;2022-07-23T00:48:39;20.65;;;18.45;;
35306;SDS011;21420;52.196;21.416;2022-07-23T00:51:06;21.60;;;18.00;;
35306;SDS011;21420;52.196;21.416;2022-07-23T00:53:32;23.73;;;19.67;;
35306;SDS011;21420;52.196;21.416;2022-07-23T00:55:59;20.02;;;17.87;;
35306;SDS011;21420;52.196;21.416;2022-07-23T00:58:25;22.95;;;19.42;;
35306;SDS011;21420;52.196;21.416;2022-07-23T01:00:52;32.55;;;26.42;;
35306;SDS011;21420;52.196;21.416;2022-07-23T01:03:18;36.83;;;29.85;;
35306;SDS011;21420;52.196;21.416;2022-07-23T01:05:44;35.85;;;28.65;;
35306;SDS011;21420;52.196;21.416;2022-07-23T01:08:11;26.30;;;22.80;;
35306;SDS011;21420;52.196;21.416;2022-07-23T01:10:39;24.67;;;20.95;;
35306;SDS011;21420;52.196;21.416;2022-07-23T01:13:07;24.77;;;22.15;;
35306;SDS011;21420;52.196;21.416;2022-07-23T01:15:36;24.52;;;19.73;;
35306;SDS011;21420;52.196;21.416;2022-07-23T01:18:06;23.15;;;19.15;;
35306;SDS011;21420;52.196;21.416;2022-07-23T01:20:34;22.15;;;19.77;;
35306;SDS011;21420;52.196;21.416;2022-07-23T01:23:01;23.80;;;19.17;;
35306;SDS011;21420;52.196;21.416;2022-07-23T01:25:28;28.60;;;22.45;;
35306;SDS011;21420;52.196;21.416;2022-07-23T01:28:02;25.62;;;20.37;;
35306;SDS011;21420;52.196;21.416;2022-07-23T01:30:29;20.52;;;18.00;;
35306;SDS011;21420;52.196;21.416;2022-07-23T01:32:57;19.95;;;16.62;;
35306;SDS011;21420;52.196;21.416;2022-07-23T01:35:23;16.55;;;14.47;;
35306;SDS011;21420;52.196;21.416;2022-07-23T01:37:51;19.20;;;16.35;;
35306;SDS011;21420;52.196;21.416;2022-07-23T01:40:19;16.02;;;14.53;;
35306;SDS011;21420;52.196;21.416;2022-07-23T01:42:45;17.35;;;15.60;;
35306;SDS011;21420;52.196;21.416;2022-07-23T01:45:12;16.57;;;14.85;;
35306;SDS011;21420;52.196;21.416;2022-07-23T01:47:40;16.40;;;14.70;;
35306;SDS011;21420;52.196;21.416;2022-07-23T01:50:07;16.97;;;14.90;;
35306;SDS011;21420;52.196;21.416;2022-07-23T01:52:40;19.10;;;16.87;;
35306;SDS011;21420;52.196;21.416;2022-07-23T01:55:07;23.47;;;17.77;;
35306;SDS011;21420;52.196;21.416;2022-07-23T01:57:35;20.02;;;17.92;;
35306;SDS011;21420;52.196;21.416;2022-07-23T02:00:01;23.00;;;17.57;;
35306;SDS011;21420;52.196;21.416;2022-07-23T02:02:31;19.45;;;17.48;;
35306;SDS011;21420;52.196;21.416;2022-07-23T02:04:57;19.25;;;17.02;;
35306;SDS011;21420;52.196;21.416;2022-07-23T02:07:25;19.55;;;17.57;;
35306;SDS011;21420;52.196;21.416;2022-07-23T02:09:51;21.17;;;17.95;;
35306;SDS011;21420;52.196;21.416;2022-07-23T02:12:17;21.85;;;18.95;;
35306;SDS011;21420;52.196;21.416;2022-07-23T02:14:43;22.87;;;18.80;;
35306;SDS011;21420;52.196;21.416;2022-07-23T02:19:41;21.85;;;18.20;;
35306;SDS011;21420;52.196;21.416;2022-07-23T02:22:07;20.48;;;18.42;;
35306;SDS011;21420;52.196;21.416;2022-07-23T02:24:33;25.10;;;18.35;;
35306;SDS011;21420;52.196;21.416;2022-07-23T02:26:59;21.07;;;18.87;;
35306;SDS011;21420;52.196;21.416;2022-07-23T02:29:26;20.37;;;18.27;;
35306;SDS011;21420;52.196;21.416;2022-07-23T02:31:53;18.65;;;16.77;;
35306;SDS011;21420;52.196;21.416;2022-07-23T02:34:19;18.52;;;16.70;;
35306;SDS011;21420;52.196;21.416;2022-07-23T02:36:45;18.92;;;16.15;;
35306;SDS011;21420;52.196;21.416;2022-07-23T02:39:11;18.57;;;15.45;;
35306;SDS011;21420;52.196;21.416;2022-07-23T02:41:38;18.35;;;16.55;;
35306;SDS011;21420;52.196;21.416;2022-07-23T02:44:04;19.20;;;17.20;;
35306;SDS011;21420;52.196;21.416;2022-07-23T02:46:30;19.40;;;17.52;;
35306;SDS011;21420;52.196;21.416;2022-07-23T02:48:57;16.80;;;14.75;;
35306;SDS011;21420;52.196;21.416;2022-07-23T02:51:23;17.55;;;15.58;;
35306;SDS011;21420;52.196;21.416;2022-07-23T02:53:51;17.40;;;15.70;;
35306;SDS011;21420;52.196;21.416;2022-07-23T02:56:18;21.17;;;16.73;;
35306;SDS011;21420;52.196;21.416;2022-07-23T02:58:44;17.40;;;15.55;;
35306;SDS011;21420;52.196;21.416;2022-07-23T03:01:12;16.57;;;14.43;;
35306;SDS011;21420;52.196;21.416;2022-07-23T03:03:38;15.00;;;13.30;;
35306;SDS011;21420;52.196;21.416;2022-07-23T03:06:04;16.00;;;13.62;;
35306;SDS011;21420;52.196;21.416;2022-07-23T03:08:31;14.05;;;12.63;;
35306;SDS011;21420;52.196;21.416;2022-07-23T03:10:58;14.50;;;11.97;;
35306;SDS011;21420;52.196;21.416;2022-07-23T03:13:24;13.48;;;12.07;;
35306;SDS011;21420;52.196;21.416;2022-07-23T03:15:51;13.80;;;12.03;;
35306;SDS011;21420;52.196;21.416;2022-07-23T03:18:17;14.18;;;12.70;;
35306;SDS011;21420;52.196;21.416;2022-07-23T03:20:44;13.38;;;11.95;;
35306;SDS011;21420;52.196;21.416;2022-07-23T03:23:10;15.90;;;12.60;;
35306;SDS011;21420;52.196;21.416;2022-07-23T03:25:37;14.87;;;13.28;;
35306;SDS011;21420;52.196;21.416;2022-07-23T03:28:03;14.30;;;12.80;;
35306;SDS011;21420;52.196;21.416;2022-07-23T03:30:30;14.03;;;12.60;;
35306;SDS011;21420;52.196;21.416;2022-07-23T03:32:56;19.23;;;12.93;;
35306;SDS011;21420;52.196;21.416;2022-07-23T03:35:23;13.65;;;12.45;;
35306;SDS011;21420;52.196;21.416;2022-07-23T03:37:51;13.98;;;12.10;;
35306;SDS011;21420;52.196;21.416;2022-07-23T03:40:17;17.35;;;15.65;;
35306;SDS011;21420;52.196;21.416;2022-07-23T03:42:44;18.92;;;17.02;;
35306;SDS011;21420;52.196;21.416;2022-07-23T03:45:11;17.42;;;14.95;;
35306;SDS011;21420;52.196;21.416;2022-07-23T03:47:38;20.52;;;17.80;;
35306;SDS011;21420;52.196;21.416;2022-07-23T03:50:04;19.15;;;17.07;;
35306;SDS011;21420;52.196;21.416;2022-07-23T03:52:32;21.12;;;17.65;;
35306;SDS011;21420;52.196;21.416;2022-07-23T03:54:58;18.20;;;16.48;;
35306;SDS011;21420;52.196;21.416;2022-07-23T03:57:24;23.00;;;20.55;;
35306;SDS011;21420;52.196;21.416;2022-07-23T03:59:50;20.90;;;18.67;;
35306;SDS011;21420;52.196;21.416;2022-07-23T04:02:16;21.40;;;17.98;;
35306;SDS011;21420;52.196;21.416;2022-07-23T04:04:43;25.00;;;18.80;;
35306;SDS011;21420;52.196;21.416;2022-07-23T04:07:09;22.90;;;20.70;;
35306;SDS011;21420;52.196;21.416;2022-07-23T04:09:36;23.47;;;21.27;;
35306;SDS011;21420;52.196;21.416;2022-07-23T04:12:03;21.30;;;19.12;;
35306;SDS011;21420;52.196;21.416;2022-07-23T04:14:29;22.98;;;20.62;;
35306;SDS011;21420;52.196;21.416;2022-07-23T04:16:56;25.60;;;20.52;;
35306;SDS011;21420;52.196;21.416;2022-07-23T04:19:22;26.15;;;22.55;;
35306;SDS011;21420;52.196;21.416;2022-07-23T04:21:53;27.00;;;24.12;;
35306;SDS011;21420;52.196;21.416;2022-07-23T04:24:19;27.87;;;24.37;;
35306;SDS011;21420;52.196;21.416;2022-07-23T04:26:45;27.90;;;24.90;;
35306;SDS011;21420;52.196;21.416;2022-07-23T04:29:11;29.10;;;24.57;;
35306;SDS011;21420;52.196;21.416;2022-07-23T04:31:40;28.27;;;25.45;;
35306;SDS011;21420;52.196;21.416;2022-07-23T04:34:09;26.77;;;23.80;;
35306;SDS011;21420;52.196;21.416;2022-07-23T04:36:35;29.20;;;23.40;;
35306;SDS011;21420;52.196;21.416;2022-07-23T04:39:01;27.10;;;23.98;;
35306;SDS011;21420;52.196;21.416;2022-07-23T04:41:28;28.10;;;24.65;;
35306;SDS011;21420;52.196;21.416;2022-07-23T04:43:55;26.62;;;23.65;;
35306;SDS011;21420;52.196;21.416;2022-07-23T04:46:21;27.98;;;23.77;;
35306;SDS011;21420;52.196;21.416;2022-07-23T04:48:49;26.55;;;23.65;;
35306;SDS011;21420;52.196;21.416;2022-07-23T04:51:16;26.37;;;23.67;;
35306;SDS011;21420;52.196;21.416;2022-07-23T04:53:42;28.75;;;23.07;;
35306;SDS011;21420;52.196;21.416;2022-07-23T04:56:09;27.13;;;22.37;;
35306;SDS011;21420;52.196;21.416;2022-07-23T04:58:35;23.87;;;21.45;;
35306;SDS011;21420;52.196;21.416;2022-07-23T05:01:02;23.77;;;21.42;;
35306;SDS011;21420;52.196;21.416;2022-07-23T05:03:29;24.02;;;21.57;;
35306;SDS011;21420;52.196;21.416;2022-07-23T05:05:56;26.62;;;20.77;;
35306;SDS011;21420;52.196;21.416;2022-07-23T05:08:23;26.07;;;21.15;;
35306;SDS011;21420;52.196;21.416;2022-07-23T05:10:50;23.52;;;20.48;;
35306;SDS011;21420;52.196;21.416;2022-07-23T05:13:17;25.05;;;20.27;;
35306;SDS011;21420;52.196;21.416;2022-07-23T05:15:44;21.23;;;19.02;;
35306;SDS011;21420;52.196;21.416;2022-07-23T05:18:12;19.42;;;17.25;;
35306;SDS011;21420;52.196;21.416;2022-07-23T05:20:38;21.93;;;18.52;;
35306;SDS011;21420;52.196;21.416;2022-07-23T05:23:05;21.73;;;17.75;;
35306;SDS011;21420;52.196;21.416;2022-07-23T05:25:32;17.75;;;15.95;;
35306;SDS011;21420;52.196;21.416;2022-07-23T05:27:59;21.65;;;17.40;;
35306;SDS011;21420;52.196;21.416;2022-07-23T05:30:25;14.20;;;12.85;;
35306;SDS011;21420;52.196;21.416;2022-07-23T05:32:53;17.23;;;15.53;;
35306;SDS011;21420;52.196;21.416;2022-07-23T05:35:20;16.70;;;14.98;;
35306;SDS011;21420;52.196;21.416;2022-07-23T05:37:48;16.93;;;14.90;;
35306;SDS011;21420;52.196;21.416;2022-07-23T05:40:15;14.95;;;12.75;;
35306;SDS011;21420;52.196;21.416;2022-07-23T05:42:41;14.73;;;13.30;;
35306;SDS011;21420;52.196;21.416;2022-07-23T05:45:08;13.85;;;12.55;;
35306;SDS011;21420;52.196;21.416;2022-07-23T05:50:15;15.85;;;13.60;;
35306;SDS011;21420;52.196;21.416;2022-07-23T05:52:44;15.33;;;13.17;;
35306;SDS011;21420;52.196;21.416;2022-07-23T05:55:17;13.38;;;11.93;;
35306;SDS011;21420;52.196;21.416;2022-07-23T05:57:44;14.20;;;12.40;;
35306;SDS011;21420;52.196;21.416;2022-07-23T06:00:10;14.50;;;13.08;;
35306;SDS011;21420;52.196;21.416;2022-07-23T06:02:41;16.00;;;14.55;;
35306;SDS011;21420;52.196;21.416;2022-07-23T06:05:08;14.28;;;12.85;;
35306;SDS011;21420;52.196;21.416;2022-07-23T06:07:35;15.08;;;13.58;;
35306;SDS011;21420;52.196;21.416;2022-07-23T06:10:02;16.07;;;14.40;;
35306;SDS011;21420;52.196;21.416;2022-07-23T06:12:30;18.05;;;14.83;;
35306;SDS011;21420;52.196;21.416;2022-07-23T06:14:57;16.30;;;13.55;;
35306;SDS011;21420;52.196;21.416;2022-07-23T06:17:23;12.25;;;10.93;;
35306;SDS011;21420;52.196;21.416;2022-07-23T06:19:50;13.68;;;12.23;;
35306;SDS011;21420;52.196;21.416;2022-07-23T06:22:16;18.00;;;13.75;;
35306;SDS011;21420;52.196;21.416;2022-07-23T06:24:44;15.10;;;12.88;;
35306;SDS011;21420;52.196;21.416;2022-07-23T06:27:10;16.55;;;12.60;;
35306;SDS011;21420;52.196;21.416;2022-07-23T06:29:36;15.63;;;14.07;;
35306;SDS011;21420;52.196;21.416;2022-07-23T06:32:03;16.95;;;14.23;;
35306;SDS011;21420;52.196;21.416;2022-07-23T06:34:30;16.67;;;14.33;;
35306;SDS011;21420;52.196;21.416;2022-07-23T06:36:57;15.90;;;14.30;;
35306;SDS011;21420;52.196;21.416;2022-07-23T06:39:25;12.63;;;11.35;;
35306;SDS011;21420;52.196;21.416;2022-07-23T06:41:52;11.38;;;10.13;;
35306;SDS011;21420;52.196;21.416;2022-07-23T06:44:18;14.45;;;11.78;;
35306;SDS011;21420;52.196;21.416;2022-07-23T06:46:46;14.38;;;11.10;;
35306;SDS011;21420;52.196;21.416;2022-07-23T06:49:12;14.70;;;12.03;;
35306;SDS011;21420;52.196;21.416;2022-07-23T06:51:38;12.37;;;11.30;;
35306;SDS011;21420;52.196;21.416;2022-07-23T06:54:04;16.50;;;13.75;;
35306;SDS011;21420;52.196;21.416;2022-07-23T06:56:31;13.98;;;11.63;;
35306;SDS011;21420;52.196;21.416;2022-07-23T06:58:59;11.60;;;10.40;;
35306;SDS011;21420;52.196;21.416;2022-07-23T07:01:25;14.70;;;13.28;;
35306;SDS011;21420;52.196;21.416;2022-07-23T07:03:52;14.68;;;11.12;;
35306;SDS011;21420;52.196;21.416;2022-07-23T07:06:18;10.78;;;9.48;;
35306;SDS011;21420;52.196;21.416;2022-07-23T07:08:45;13.72;;;10.85;;
35306;SDS011;21420;52.196;21.416;2022-07-23T07:11:11;11.18;;;10.08;;
35306;SDS011;21420;52.196;21.416;2022-07-23T07:13:37;16.97;;;12.63;;
35306;SDS011;21420;52.196;21.416;2022-07-23T07:16:04;13.08;;;11.55;;
35306;SDS011;21420;52.196;21.416;2022-07-23T07:18:31;10.25;;;9.25;;
35306;SDS011;21420;52.196;21.416;2022-07-23T07:20:57;11.68;;;9.90;;
35306;SDS011;21420;52.196;21.416;2022-07-23T07:23:23;10.15;;;9.15;;
35306;SDS011;21420;52.196;21.416;2022-07-23T07:25:50;10.50;;;8.63;;
35306;SDS011;21420;52.196;21.416;2022-07-23T07:28:18;9.70;;;8.50;;
35306;SDS011;21420;52.196;21.416;2022-07-23T07:30:44;9.23;;;8.33;;
35306;SDS011;21420;52.196;21.416;2022-07-23T07:33:10;8.80;;;7.83;;
35306;SDS011;21420;52.196;21.416;2022-07-23T07:35:36;8.80;;;7.70;;
35306;SDS011;21420;52.196;21.416;2022-07-23T07:38:02;8.08;;;7.28;;
35306;SDS011;21420;52.196;21.416;2022-07-23T07:40:28;8.45;;;7.65;;
35306;SDS011;21420;52.196;21.416;2022-07-23T07:42:55;8.45;;;7.53;;
35306;SDS011;21420;52.196;21.416;2022-07-23T07:45:22;9.65;;;7.47;;
35306;SDS011;21420;52.196;21.416;2022-07-23T07:47:50;8.75;;;7.15;;
35306;SDS011;21420;52.196;21.416;2022-07-23T07:50:20;8.10;;;7.30;;
35306;SDS011;21420;52.196;21.416;2022-07-23T07:55:13;9.58;;;7.28;;
35306;SDS011;21420;52.196;21.416;2022-07-23T07:57:40;7.62;;;6.90;;
35306;SDS011;21420;52.196;21.416;2022-07-23T08:00:07;7.12;;;6.53;;
35306;SDS011;21420;52.196;21.416;2022-07-23T08:03:00;8.95;;;7.20;;
35306;SDS011;21420;52.196;21.416;2022-07-23T08:05:21;6.85;;;6.28;;
35306;SDS011;21420;52.196;21.416;2022-07-23T08:07:53;6.75;;;6.25;;
35306;SDS011;21420;52.196;21.416;2022-07-23T08:10:21;6.60;;;6.00;;
35306;SDS011;21420;52.196;21.416;2022-07-23T08:12:48;6.85;;;6.15;;
35306;SDS011;21420;52.196;21.416;2022-07-23T08:15:19;7.20;;;6.62;;
35306;SDS011;21420;52.196;21.416;2022-07-23T08:17:46;7.42;;;6.28;;
35306;SDS011;21420;52.196;21.416;2022-07-23T08:20:15;6.58;;;5.85;;
35306;SDS011;21420;52.196;21.416;2022-07-23T08:23:00;6.78;;;6.28;;
35306;SDS011;21420;52.196;21.416;2022-07-23T08:25:38;6.90;;;6.20;;
35306;SDS011;21420;52.196;21.416;2022-07-23T08:28:05;7.05;;;6.35;;
35306;SDS011;21420;52.196;21.416;2022-07-23T08:30:35;7.10;;;6.05;;
35306;SDS011;21420;52.196;21.416;2022-07-23T08:33:06;6.67;;;6.17;;
35306;SDS011;21420;52.196;21.416;2022-07-23T08:35:40;8.28;;;6.80;;
35306;SDS011;21420;52.196;21.416;2022-07-23T08:38:09;8.73;;;5.90;;
35306;SDS011;21420;52.196;21.416;2022-07-23T08:40:37;6.10;;;5.58;;
35306;SDS011;21420;52.196;21.416;2022-07-23T08:43:14;7.22;;;5.55;;
35306;SDS011;21420;52.196;21.416;2022-07-23T08:45:44;8.08;;;6.42;;
35306;SDS011;21420;52.196;21.416;2022-07-23T08:48:14;6.60;;;6.00;;
35306;SDS011;21420;52.196;21.416;2022-07-23T08:50:50;6.40;;;5.80;;
35306;SDS011;21420;52.196;21.416;2022-07-23T08:53:14;6.70;;;5.65;;
35306;SDS011;21420;52.196;21.416;2022-07-23T08:55:50;5.67;;;5.00;;
35306;SDS011;21420;52.196;21.416;2022-07-23T08:58:16;5.60;;;5.10;;
35306;SDS011;21420;52.196;21.416;2022-07-23T09:00:43;5.20;;;4.70;;
35306;SDS011;21420;52.196;21.416;2022-07-23T09:03:15;5.58;;;5.05;;
35306;SDS011;21420;52.196;21.416;2022-07-23T09:05:44;6.65;;;4.58;;
35306;SDS011;21420;52.196;21.416;2022-07-23T09:10:44;4.55;;;4.17;;
35306;SDS011;21420;52.196;21.416;2022-07-23T09:13:33;4.95;;;4.55;;
35306;SDS011;21420;52.196;21.416;2022-07-23T09:16:08;6.45;;;4.50;;
35306;SDS011;21420;52.196;21.416;2022-07-23T09:18:40;9.58;;;4.55;;
35306;SDS011;21420;52.196;21.416;2022-07-23T09:23:58;5.47;;;4.85;;
35306;SDS011;21420;52.196;21.416;2022-07-23T09:26:36;8.45;;;4.50;;
35306;SDS011;21420;52.196;21.416;2022-07-23T09:37:09;5.00;;;4.47;;
35306;SDS011;21420;52.196;21.416;2022-07-23T09:39:40;5.05;;;4.53;;
35306;SDS011;21420;52.196;21.416;2022-07-23T09:44:48;4.90;;;4.45;;
35306;SDS011;21420;52.196;21.416;2022-07-23T09:47:19;7.58;;;5.40;;
35306;SDS011;21420;52.196;21.416;2022-07-23T09:52:35;9.68;;;5.35;;
35306;SDS011;21420;52.196;21.416;2022-07-23T09:55:14;4.70;;;4.28;;
35306;SDS011;21420;52.196;21.416;2022-07-23T10:00:19;5.40;;;4.75;;
35306;SDS011;21420;52.196;21.416;2022-07-23T10:02:45;5.67;;;5.08;;
35306;SDS011;21420;52.196;21.416;2022-07-23T10:05:28;5.35;;;4.80;;
35306;SDS011;21420;52.196;21.416;2022-07-23T10:08:01;5.40;;;4.90;;
35306;SDS011;21420;52.196;21.416;2022-07-23T10:10:36;5.85;;;5.25;;
35306;SDS011;21420;52.196;21.416;2022-07-23T10:13:25;5.53;;;5.03;;
35306;SDS011;21420;52.196;21.416;2022-07-23T10:16:10;5.50;;;4.83;;
35306;SDS011;21420;52.196;21.416;2022-07-23T10:18:37;4.42;;;4.03;;
35306;SDS011;21420;52.196;21.416;2022-07-23T10:21:05;5.62;;;4.25;;
35306;SDS011;21420;52.196;21.416;2022-07-23T10:23:35;4.97;;;4.28;;
35306;SDS011;21420;52.196;21.416;2022-07-23T10:28:56;7.05;;;4.65;;
35306;SDS011;21420;52.196;21.416;2022-07-23T10:31:37;5.12;;;4.30;;
35306;SDS011;21420;52.196;21.416;2022-07-23T10:39:45;5.15;;;4.65;;
35306;SDS011;21420;52.196;21.416;2022-07-23T10:42:12;5.47;;;5.08;;
35306;SDS011;21420;52.196;21.416;2022-07-23T10:44:42;5.67;;;5.08;;
35306;SDS011;21420;52.196;21.416;2022-07-23T10:47:26;5.80;;;5.05;;
35306;SDS011;21420;52.196;21.416;2022-07-23T10:50:17;5.95;;;4.78;;
35306;SDS011;21420;52.196;21.416;2022-07-23T10:55:40;5.05;;;4.50;;
35306;SDS011;21420;52.196;21.416;2022-07-23T10:58:25;5.05;;;4.55;;
35306;SDS011;21420;52.196;21.416;2022-07-23T11:03:59;4.60;;;4.22;;
35306;SDS011;21420;52.196;21.416;2022-07-23T11:09:27;5.80;;;5.33;;
35306;SDS011;21420;52.196;21.416;2022-07-23T11:20:20;7.53;;;5.30;;
35306;SDS011;21420;52.196;21.416;2022-07-23T11:22:50;5.47;;;4.97;;
35306;SDS011;21420;52.196;21.416;2022-07-23T11:27:54;6.70;;;4.72;;
35306;SDS011;21420;52.196;21.416;2022-07-23T11:40:43;5.78;;;5.28;;
35306;SDS011;21420;52.196;21.416;2022-07-23T11:43:14;6.08;;;5.55;;
35306;SDS011;21420;52.196;21.416;2022-07-23T11:45:42;6.03;;;5.53;;
35306;SDS011;21420;52.196;21.416;2022-07-23T11:48:18;6.00;;;5.40;;
35306;SDS011;21420;52.196;21.416;2022-07-23T11:50:52;6.30;;;5.72;;
35306;SDS011;21420;52.196;21.416;2022-07-23T11:56:08;5.65;;;5.12;;
35306;SDS011;21420;52.196;21.416;2022-07-23T11:58:36;5.37;;;4.95;;
35306;SDS011;21420;52.196;21.416;2022-07-23T12:01:04;7.95;;;4.97;;
35306;SDS011;21420;52.196;21.416;2022-07-23T12:03:31;5.80;;;5.40;;
35306;SDS011;21420;52.196;21.416;2022-07-23T12:05:58;7.33;;;5.05;;
35306;SDS011;21420;52.196;21.416;2022-07-23T12:08:25;5.70;;;5.28;;
35306;SDS011;21420;52.196;21.416;2022-07-23T12:10:52;5.65;;;5.08;;
35306;SDS011;21420;52.196;21.416;2022-07-23T12:13:20;6.08;;;5.55;;
35306;SDS011;21420;52.196;21.416;2022-07-23T12:15:49;5.72;;;5.05;;
35306;SDS011;21420;52.196;21.416;2022-07-23T12:18:25;7.75;;;5.55;;
35306;SDS011;21420;52.196;21.416;2022-07-23T12:20:56;8.20;;;5.40;;
35306;SDS011;21420;52.196;21.416;2022-07-23T12:23:25;5.58;;;5.08;;
35306;SDS011;21420;52.196;21.416;2022-07-23T12:25:52;5.42;;;4.90;;
35306;SDS011;21420;52.196;21.416;2022-07-23T12:28:30;7.15;;;5.25;;
35306;SDS011;21420;52.196;21.416;2022-07-23T12:30:58;5.92;;;5.28;;
35306;SDS011;21420;52.196;21.416;2022-07-23T12:35:56;5.97;;;5.47;;
35306;SDS011;21420;52.196;21.416;2022-07-23T12:38:25;5.45;;;5.05;;
35306;SDS011;21420;52.196;21.416;2022-07-23T12:41:00;5.35;;;4.85;;
35306;SDS011;21420;52.196;21.416;2022-07-23T12:43:26;6.83;;;5.72;;
35306;SDS011;21420;52.196;21.416;2022-07-23T12:46:09;6.67;;;5.40;;
35306;SDS011;21420;52.196;21.416;2022-07-23T12:51:23;5.78;;;5.03;;
35306;SDS011;21420;52.196;21.416;2022-07-23T12:53:58;5.85;;;5.45;;
35306;SDS011;21420;52.196;21.416;2022-07-23T12:56:31;6.65;;;5.30;;
35306;SDS011;21420;52.196;21.416;2022-07-23T13:01:37;6.00;;;5.50;;
35306;SDS011;21420;52.196;21.416;2022-07-23T13:04:09;6.55;;;5.97;;
35306;SDS011;21420;52.196;21.416;2022-07-23T13:06:42;5.58;;;5.17;;
35306;SDS011;21420;52.196;21.416;2022-07-23T13:09:13;6.70;;;6.08;;
35306;SDS011;21420;52.196;21.416;2022-07-23T13:11:42;6.28;;;5.78;;
35306;SDS011;21420;52.196;21.416;2022-07-23T13:14:10;6.17;;;5.60;;
35306;SDS011;21420;52.196;21.416;2022-07-23T13:16:38;8.18;;;6.12;;
35306;SDS011;21420;52.196;21.416;2022-07-23T13:19:06;6.90;;;6.17;;
35306;SDS011;21420;52.196;21.416;2022-07-23T13:21:32;7.53;;;6.08;;
35306;SDS011;21420;52.196;21.416;2022-07-23T13:23:59;5.95;;;5.45;;
35306;SDS011;21420;52.196;21.416;2022-07-23T13:26:26;7.28;;;6.40;;
35306;SDS011;21420;52.196;21.416;2022-07-23T13:28:53;8.43;;;5.53;;
35306;SDS011;21420;52.196;21.416;2022-07-23T13:31:20;6.67;;;5.95;;
35306;SDS011;21420;52.196;21.416;2022-07-23T13:33:47;6.45;;;5.87;;
35306;SDS011;21420;52.196;21.416;2022-07-23T13:36:13;7.17;;;6.45;;
35306;SDS011;21420;52.196;21.416;2022-07-23T13:38:39;6.90;;;6.25;;
35306;SDS011;21420;52.196;21.416;2022-07-23T13:41:06;6.12;;;5.53;;
35306;SDS011;21420;52.196;21.416;2022-07-23T13:43:32;9.63;;;6.03;;
35306;SDS011;21420;52.196;21.416;2022-07-23T13:45:59;6.75;;;6.08;;
35306;SDS011;21420;52.196;21.416;2022-07-23T13:48:26;6.90;;;6.10;;
35306;SDS011;21420;52.196;21.416;2022-07-23T13:50:54;6.45;;;5.95;;
35306;SDS011;21420;52.196;21.416;2022-07-23T13:53:22;6.30;;;5.65;;
35306;SDS011;21420;52.196;21.416;2022-07-23T13:55:50;6.80;;;6.20;;
35306;SDS011;21420;52.196;21.416;2022-07-23T13:58:18;6.47;;;5.95;;
35306;SDS011;21420;52.196;21.416;2022-07-23T14:00:46;6.35;;;5.60;;
35306;SDS011;21420;52.196;21.416;2022-07-23T14:03:16;8.38;;;6.20;;
35306;SDS011;21420;52.196;21.416;2022-07-23T14:05:43;8.13;;;7.30;;
35306;SDS011;21420;52.196;21.416;2022-07-23T14:08:10;6.78;;;5.97;;
35306;SDS011;21420;52.196;21.416;2022-07-23T14:10:37;7.47;;;5.72;;
35306;SDS011;21420;52.196;21.416;2022-07-23T14:13:03;6.03;;;5.50;;
35306;SDS011;21420;52.196;21.416;2022-07-23T14:15:30;6.60;;;6.00;;
35306;SDS011;21420;52.196;21.416;2022-07-23T14:17:57;7.03;;;6.25;;
35306;SDS011;21420;52.196;21.416;2022-07-23T14:20:24;7.03;;;6.37;;
35306;SDS011;21420;52.196;21.416;2022-07-23T14:22:51;7.15;;;6.55;;
35306;SDS011;21420;52.196;21.416;2022-07-23T14:25:17;7.03;;;6.40;;
35306;SDS011;21420;52.196;21.416;2022-07-23T14:27:44;7.15;;;6.42;;
35306;SDS011;21420;52.196;21.416;2022-07-23T14:30:11;6.25;;;5.65;;
35306;SDS011;21420;52.196;21.416;2022-07-23T14:32:38;8.05;;;6.10;;
35306;SDS011;21420;52.196;21.416;2022-07-23T14:35:04;7.65;;;6.12;;
35306;SDS011;21420;52.196;21.416;2022-07-23T14:37:32;6.70;;;6.10;;
35306;SDS011;21420;52.196;21.416;2022-07-23T14:39:59;11.00;;;6.50;;
35306;SDS011;21420;52.196;21.416;2022-07-23T14:42:26;6.47;;;5.95;;
35306;SDS011;21420;52.196;21.416;2022-07-23T14:44:52;7.42;;;6.78;;
35306;SDS011;21420;52.196;21.416;2022-07-23T14:47:18;7.33;;;6.47;;
35306;SDS011;21420;52.196;21.416;2022-07-23T14:49:44;9.00;;;6.62;;
35306;SDS011;21420;52.196;21.416;2022-07-23T14:52:10;9.65;;;6.78;;
35306;SDS011;21420;52.196;21.416;2022-07-23T14:54:37;8.30;;;6.08;;
35306;SDS011;21420;52.196;21.416;2022-07-23T14:57:03;7.20;;;6.50;;
35306;SDS011;21420;52.196;21.416;2022-07-23T14:59:30;7.80;;;6.83;;
35306;SDS011;21420;52.196;21.416;2022-07-23T15:01:57;8.90;;;6.40;;
35306;SDS011;21420;52.196;21.416;2022-07-23T15:04:24;11.63;;;6.92;;
35306;SDS011;21420;52.196;21.416;2022-07-23T15:06:51;12.07;;;6.78;;
35306;SDS011;21420;52.196;21.416;2022-07-23T15:09:18;12.85;;;7.10;;
35306;SDS011;21420;52.196;21.416;2022-07-23T15:11:44;11.57;;;6.75;;
35306;SDS011;21420;52.196;21.416;2022-07-23T15:14:10;7.58;;;6.45;;
35306;SDS011;21420;52.196;21.416;2022-07-23T15:16:37;11.22;;;8.85;;
35306;SDS011;21420;52.196;21.416;2022-07-23T15:19:03;35.60;;;7.28;;
35306;SDS011;21420;52.196;21.416;2022-07-23T15:21:30;17.48;;;6.12;;
35306;SDS011;21420;52.196;21.416;2022-07-23T15:23:57;16.77;;;6.58;;
35306;SDS011;21420;52.196;21.416;2022-07-23T15:26:25;22.98;;;6.25;;
35306;SDS011;21420;52.196;21.416;2022-07-23T15:28:53;18.23;;;5.50;;
35306;SDS011;21420;52.196;21.416;2022-07-23T15:31:20;16.12;;;6.62;;
35306;SDS011;21420;52.196;21.416;2022-07-23T15:33:46;11.70;;;5.65;;
35306;SDS011;21420;52.196;21.416;2022-07-23T15:36:13;13.08;;;5.90;;
35306;SDS011;21420;52.196;21.416;2022-07-23T15:38:40;10.50;;;5.72;;
35306;SDS011;21420;52.196;21.416;2022-07-23T15:41:07;14.13;;;5.90;;
35306;SDS011;21420;52.196;21.416;2022-07-23T15:43:35;8.68;;;5.80;;
35306;SDS011;21420;52.196;21.416;2022-07-23T15:46:04;8.80;;;5.53;;